sensor_id;sensor_type;location;lat;lon;timestamp;temperature;humidity
62573;DHT22;48626;51.678;5.806;2022-07-29T00:02:04;19.40;55.30
62573;DHT22;48626;51.678;5.806;2022-07-29T00:04:29;19.40;55.50
62573;DHT22;48626;51.678;5.806;2022-07-29T00:06:55;19.40;55.70
62573;DHT22;48626;51.678;5.806;2022-07-29T00:09:20;19.40;55.70
62573;DHT22;48626;51.678;5.806;2022-07-29T00:11:46;19.50;56.00
62573;DHT22;48626;51.678;5.806;2022-07-29T00:14:12;19.40;55.80
62573;DHT22;48626;51.678;5.806;2022-07-29T00:16:37;19.40;56.00
62573;DHT22;48626;51.678;5.806;2022-07-29T00:19:04;19.40;55.80
62573;DHT22;48626;51.678;5.806;2022-07-29T00:21:29;19.30;55.40
62573;DHT22;48626;51.678;5.806;2022-07-29T00:23:55;19.30;55.60
62573;DHT22;48626;51.678;5.806;2022-07-29T00:26:21;19.30;55.80
62573;DHT22;48626;51.678;5.806;2022-07-29T00:28:46;19.30;55.70
62573;DHT22;48626;51.678;5.806;2022-07-29T00:31:12;19.40;56.30
62573;DHT22;48626;51.678;5.806;2022-07-29T00:33:38;19.40;56.30
62573;DHT22;48626;51.678;5.806;2022-07-29T00:36:04;19.40;57.60
62573;DHT22;48626;51.678;5.806;2022-07-29T00:38:29;19.40;56.40
62573;DHT22;48626;51.678;5.806;2022-07-29T00:40:55;19.50;56.30
62573;DHT22;48626;51.678;5.806;2022-07-29T00:43:20;19.50;56.10
62573;DHT22;48626;51.678;5.806;2022-07-29T00:45:46;19.40;55.90
62573;DHT22;48626;51.678;5.806;2022-07-29T00:48:11;19.40;56.50
62573;DHT22;48626;51.678;5.806;2022-07-29T00:50:38;19.40;56.50
62573;DHT22;48626;51.678;5.806;2022-07-29T00:53:05;19.40;56.70
62573;DHT22;48626;51.678;5.806;2022-07-29T00:55:32;19.40;56.80
62573;DHT22;48626;51.678;5.806;2022-07-29T00:57:58;19.30;57.00
62573;DHT22;48626;51.678;5.806;2022-07-29T01:00:27;19.30;57.00
62573;DHT22;48626;51.678;5.806;2022-07-29T01:02:53;19.30;58.30
62573;DHT22;48626;51.678;5.806;2022-07-29T01:05:21;19.30;60.20
62573;DHT22;48626;51.678;5.806;2022-07-29T01:07:49;19.10;62.60
62573;DHT22;48626;51.678;5.806;2022-07-29T01:10:18;18.80;65.10
62573;DHT22;48626;51.678;5.806;2022-07-29T01:12:49;18.70;66.20
62573;DHT22;48626;51.678;5.806;2022-07-29T01:15:15;18.60;67.60
62573;DHT22;48626;51.678;5.806;2022-07-29T01:29:12;18.30;72.60
62573;DHT22;48626;51.678;5.806;2022-07-29T01:32:04;18.30;74.90
62573;DHT22;48626;51.678;5.806;2022-07-29T01:34:58;18.20;74.50
62573;DHT22;48626;51.678;5.806;2022-07-29T01:37:36;18.20;75.70
62573;DHT22;48626;51.678;5.806;2022-07-29T01:40:05;18.10;77.40
62573;DHT22;48626;51.678;5.806;2022-07-29T01:42:44;17.90;78.00
62573;DHT22;48626;51.678;5.806;2022-07-29T01:48:31;17.80;80.60
62573;DHT22;48626;51.678;5.806;2022-07-29T01:50:52;17.80;80.10
62573;DHT22;48626;51.678;5.806;2022-07-29T01:53:39;17.70;80.20
62573;DHT22;48626;51.678;5.806;2022-07-29T01:56:09;17.70;81.20
62573;DHT22;48626;51.678;5.806;2022-07-29T01:58:36;17.60;81.20
62573;DHT22;48626;51.678;5.806;2022-07-29T02:01:05;17.60;81.40
62573;DHT22;48626;51.678;5.806;2022-07-29T02:03:33;17.60;81.80
62573;DHT22;48626;51.678;5.806;2022-07-29T02:06:01;17.50;82.10
62573;DHT22;48626;51.678;5.806;2022-07-29T02:08:29;17.50;82.40
62573;DHT22;48626;51.678;5.806;2022-07-29T02:10:57;17.40;83.30
62573;DHT22;48626;51.678;5.806;2022-07-29T02:13:27;17.30;83.60
62573;DHT22;48626;51.678;5.806;2022-07-29T02:15:55;17.20;83.90
62573;DHT22;48626;51.678;5.806;2022-07-29T02:18:23;17.20;83.70
62573;DHT22;48626;51.678;5.806;2022-07-29T02:20:53;17.30;83.70
62573;DHT22;48626;51.678;5.806;2022-07-29T02:23:22;17.30;83.80
62573;DHT22;48626;51.678;5.806;2022-07-29T02:25:55;17.20;83.80
62573;DHT22;48626;51.678;5.806;2022-07-29T02:28:24;17.00;84.70
62573;DHT22;48626;51.678;5.806;2022-07-29T02:30:52;16.90;85.40
62573;DHT22;48626;51.678;5.806;2022-07-29T02:33:19;16.80;85.40
62573;DHT22;48626;51.678;5.806;2022-07-29T02:35:47;16.70;86.50
62573;DHT22;48626;51.678;5.806;2022-07-29T02:38:16;16.70;86.00
62573;DHT22;48626;51.678;5.806;2022-07-29T02:41:15;16.80;85.70
62573;DHT22;48626;51.678;5.806;2022-07-29T02:43:43;16.80;85.50
62573;DHT22;48626;51.678;5.806;2022-07-29T02:46:15;16.80;85.10
62573;DHT22;48626;51.678;5.806;2022-07-29T02:48:49;16.80;84.70
62573;DHT22;48626;51.678;5.806;2022-07-29T02:51:22;16.70;85.40
62573;DHT22;48626;51.678;5.806;2022-07-29T02:53:51;16.70;85.70
62573;DHT22;48626;51.678;5.806;2022-07-29T02:56:20;16.70;86.60
62573;DHT22;48626;51.678;5.806;2022-07-29T02:58:58;16.60;86.70
62573;DHT22;48626;51.678;5.806;2022-07-29T03:01:29;16.60;86.30
62573;DHT22;48626;51.678;5.806;2022-07-29T03:03:55;16.50;86.60
62573;DHT22;48626;51.678;5.806;2022-07-29T03:06:23;16.40;86.30
62573;DHT22;48626;51.678;5.806;2022-07-29T03:08:50;16.40;86.90
62573;DHT22;48626;51.678;5.806;2022-07-29T03:11:17;16.30;86.90
62573;DHT22;48626;51.678;5.806;2022-07-29T03:13:42;16.30;86.90
62573;DHT22;48626;51.678;5.806;2022-07-29T03:16:09;16.30;86.70
62573;DHT22;48626;51.678;5.806;2022-07-29T03:18:36;16.30;86.70
62573;DHT22;48626;51.678;5.806;2022-07-29T03:21:03;16.40;87.00
62573;DHT22;48626;51.678;5.806;2022-07-29T03:23:29;16.40;87.00
62573;DHT22;48626;51.678;5.806;2022-07-29T03:25:55;16.30;86.50
62573;DHT22;48626;51.678;5.806;2022-07-29T03:28:21;16.30;86.50
62573;DHT22;48626;51.678;5.806;2022-07-29T03:30:47;16.30;86.50
62573;DHT22;48626;51.678;5.806;2022-07-29T03:33:13;16.30;86.40
62573;DHT22;48626;51.678;5.806;2022-07-29T03:35:39;16.30;86.20
62573;DHT22;48626;51.678;5.806;2022-07-29T03:38:05;16.30;86.20
62573;DHT22;48626;51.678;5.806;2022-07-29T03:40:48;16.40;86.20
62573;DHT22;48626;51.678;5.806;2022-07-29T03:43:16;16.30;86.30
62573;DHT22;48626;51.678;5.806;2022-07-29T03:45:45;16.30;86.50
62573;DHT22;48626;51.678;5.806;2022-07-29T03:48:15;16.40;86.40
62573;DHT22;48626;51.678;5.806;2022-07-29T03:50:41;16.40;86.30
62573;DHT22;48626;51.678;5.806;2022-07-29T03:53:07;16.40;86.60
62573;DHT22;48626;51.678;5.806;2022-07-29T03:55:37;16.40;86.70
62573;DHT22;48626;51.678;5.806;2022-07-29T03:58:06;16.50;86.80
62573;DHT22;48626;51.678;5.806;2022-07-29T04:00:34;16.50;86.60
62573;DHT22;48626;51.678;5.806;2022-07-29T04:03:00;16.50;86.90
62573;DHT22;48626;51.678;5.806;2022-07-29T04:05:26;16.50;87.00
62573;DHT22;48626;51.678;5.806;2022-07-29T04:07:52;16.60;87.10
62573;DHT22;48626;51.678;5.806;2022-07-29T04:10:17;16.50;87.00
62573;DHT22;48626;51.678;5.806;2022-07-29T04:12:44;16.50;87.40
62573;DHT22;48626;51.678;5.806;2022-07-29T04:15:10;16.50;87.80
62573;DHT22;48626;51.678;5.806;2022-07-29T04:17:36;16.40;88.00
62573;DHT22;48626;51.678;5.806;2022-07-29T04:20:03;16.40;87.90
62573;DHT22;48626;51.678;5.806;2022-07-29T04:22:29;16.40;88.10
62573;DHT22;48626;51.678;5.806;2022-07-29T04:24:55;16.40;88.00
62573;DHT22;48626;51.678;5.806;2022-07-29T04:27:20;16.40;88.10
62573;DHT22;48626;51.678;5.806;2022-07-29T04:29:46;16.50;88.00
62573;DHT22;48626;51.678;5.806;2022-07-29T04:32:12;16.50;87.90
62573;DHT22;48626;51.678;5.806;2022-07-29T04:34:37;16.50;87.60
62573;DHT22;48626;51.678;5.806;2022-07-29T04:37:03;16.60;87.70
62573;DHT22;48626;51.678;5.806;2022-07-29T04:39:29;16.60;87.60
62573;DHT22;48626;51.678;5.806;2022-07-29T04:41:54;16.60;87.80
62573;DHT22;48626;51.678;5.806;2022-07-29T04:44:20;16.60;87.80
62573;DHT22;48626;51.678;5.806;2022-07-29T04:46:46;16.60;87.90
62573;DHT22;48626;51.678;5.806;2022-07-29T04:49:12;16.50;88.50
62573;DHT22;48626;51.678;5.806;2022-07-29T04:51:38;16.50;88.30
62573;DHT22;48626;51.678;5.806;2022-07-29T04:54:04;16.50;88.40
62573;DHT22;48626;51.678;5.806;2022-07-29T04:56:30;16.50;88.40
62573;DHT22;48626;51.678;5.806;2022-07-29T04:58:56;16.50;88.30
62573;DHT22;48626;51.678;5.806;2022-07-29T05:01:21;16.40;88.80
62573;DHT22;48626;51.678;5.806;2022-07-29T05:03:47;16.30;89.10
62573;DHT22;48626;51.678;5.806;2022-07-29T05:06:12;16.30;89.50
62573;DHT22;48626;51.678;5.806;2022-07-29T05:08:38;16.20;89.50
62573;DHT22;48626;51.678;5.806;2022-07-29T05:11:04;16.30;89.50
62573;DHT22;48626;51.678;5.806;2022-07-29T05:13:30;16.20;89.20
62573;DHT22;48626;51.678;5.806;2022-07-29T05:15:55;16.30;89.20
62573;DHT22;48626;51.678;5.806;2022-07-29T05:18:24;16.30;89.00
62573;DHT22;48626;51.678;5.806;2022-07-29T05:20:49;16.30;89.10
62573;DHT22;48626;51.678;5.806;2022-07-29T05:23:15;16.30;89.20
62573;DHT22;48626;51.678;5.806;2022-07-29T05:25:41;16.30;88.80
62573;DHT22;48626;51.678;5.806;2022-07-29T05:28:07;16.40;89.20
62573;DHT22;48626;51.678;5.806;2022-07-29T05:30:32;16.40;89.90
62573;DHT22;48626;51.678;5.806;2022-07-29T05:32:58;16.50;88.80
62573;DHT22;48626;51.678;5.806;2022-07-29T05:35:23;16.50;88.80
62573;DHT22;48626;51.678;5.806;2022-07-29T05:37:49;16.50;88.90
62573;DHT22;48626;51.678;5.806;2022-07-29T05:40:15;16.40;88.50
62573;DHT22;48626;51.678;5.806;2022-07-29T05:42:41;16.50;89.00
62573;DHT22;48626;51.678;5.806;2022-07-29T05:45:07;16.50;89.40
62573;DHT22;48626;51.678;5.806;2022-07-29T05:47:33;16.60;88.90
62573;DHT22;48626;51.678;5.806;2022-07-29T05:49:59;16.60;89.10
62573;DHT22;48626;51.678;5.806;2022-07-29T05:52:25;16.60;89.30
62573;DHT22;48626;51.678;5.806;2022-07-29T05:54:51;16.60;89.20
62573;DHT22;48626;51.678;5.806;2022-07-29T05:57:21;16.60;88.60
62573;DHT22;48626;51.678;5.806;2022-07-29T05:59:47;16.70;88.90
62573;DHT22;48626;51.678;5.806;2022-07-29T06:02:14;16.60;88.60
62573;DHT22;48626;51.678;5.806;2022-07-29T06:04:39;16.70;89.00
62573;DHT22;48626;51.678;5.806;2022-07-29T06:07:05;16.60;88.40
62573;DHT22;48626;51.678;5.806;2022-07-29T06:09:31;16.70;88.20
62573;DHT22;48626;51.678;5.806;2022-07-29T06:11:57;16.50;88.30
62573;DHT22;48626;51.678;5.806;2022-07-29T06:14:24;16.60;88.60
62573;DHT22;48626;51.678;5.806;2022-07-29T06:16:49;16.60;88.50
62573;DHT22;48626;51.678;5.806;2022-07-29T06:19:15;16.60;88.80
62573;DHT22;48626;51.678;5.806;2022-07-29T06:21:44;16.70;89.40
62573;DHT22;48626;51.678;5.806;2022-07-29T06:24:11;16.60;89.70
62573;DHT22;48626;51.678;5.806;2022-07-29T06:26:38;16.60;89.30
62573;DHT22;48626;51.678;5.806;2022-07-29T06:29:04;16.70;89.30
62573;DHT22;48626;51.678;5.806;2022-07-29T06:31:30;16.80;89.30
62573;DHT22;48626;51.678;5.806;2022-07-29T06:33:55;16.80;89.00
62573;DHT22;48626;51.678;5.806;2022-07-29T06:36:21;16.80;88.70
62573;DHT22;48626;51.678;5.806;2022-07-29T06:38:47;16.80;88.40
62573;DHT22;48626;51.678;5.806;2022-07-29T06:41:12;16.80;88.50
62573;DHT22;48626;51.678;5.806;2022-07-29T06:43:42;16.70;88.40
62573;DHT22;48626;51.678;5.806;2022-07-29T06:46:10;16.80;88.50
62573;DHT22;48626;51.678;5.806;2022-07-29T06:48:36;16.80;88.00
62573;DHT22;48626;51.678;5.806;2022-07-29T06:51:03;16.80;88.20
62573;DHT22;48626;51.678;5.806;2022-07-29T06:53:29;16.80;87.60
62573;DHT22;48626;51.678;5.806;2022-07-29T06:55:56;16.80;87.60
62573;DHT22;48626;51.678;5.806;2022-07-29T06:58:23;16.80;87.60
62573;DHT22;48626;51.678;5.806;2022-07-29T07:00:50;16.80;87.60
62573;DHT22;48626;51.678;5.806;2022-07-29T07:03:16;16.80;87.70
62573;DHT22;48626;51.678;5.806;2022-07-29T07:05:43;16.80;88.00
62573;DHT22;48626;51.678;5.806;2022-07-29T07:08:09;16.90;88.10
62573;DHT22;48626;51.678;5.806;2022-07-29T07:10:35;17.00;88.60
62573;DHT22;48626;51.678;5.806;2022-07-29T07:13:01;17.00;87.70
62573;DHT22;48626;51.678;5.806;2022-07-29T07:15:28;17.00;87.60
62573;DHT22;48626;51.678;5.806;2022-07-29T07:17:54;17.00;87.10
62573;DHT22;48626;51.678;5.806;2022-07-29T07:20:20;17.10;87.20
62573;DHT22;48626;51.678;5.806;2022-07-29T07:22:45;17.20;87.50
62573;DHT22;48626;51.678;5.806;2022-07-29T07:25:12;17.30;87.40
62573;DHT22;48626;51.678;5.806;2022-07-29T07:27:38;17.30;87.10
62573;DHT22;48626;51.678;5.806;2022-07-29T07:30:06;17.30;86.30
62573;DHT22;48626;51.678;5.806;2022-07-29T07:32:33;17.40;86.30
62573;DHT22;48626;51.678;5.806;2022-07-29T07:34:59;17.40;86.10
62573;DHT22;48626;51.678;5.806;2022-07-29T07:37:25;17.40;86.10
62573;DHT22;48626;51.678;5.806;2022-07-29T07:39:51;17.50;86.60
62573;DHT22;48626;51.678;5.806;2022-07-29T07:42:17;17.60;86.70
62573;DHT22;48626;51.678;5.806;2022-07-29T07:44:43;17.60;86.00
62573;DHT22;48626;51.678;5.806;2022-07-29T07:47:14;17.70;86.00
62573;DHT22;48626;51.678;5.806;2022-07-29T07:49:40;17.70;85.40
62573;DHT22;48626;51.678;5.806;2022-07-29T07:52:05;17.70;84.50
62573;DHT22;48626;51.678;5.806;2022-07-29T07:54:31;17.60;84.50
62573;DHT22;48626;51.678;5.806;2022-07-29T07:56:57;17.70;84.70
62573;DHT22;48626;51.678;5.806;2022-07-29T07:59:22;17.70;85.30
62573;DHT22;48626;51.678;5.806;2022-07-29T08:01:49;17.80;85.00
62573;DHT22;48626;51.678;5.806;2022-07-29T08:04:15;17.80;85.20
62573;DHT22;48626;51.678;5.806;2022-07-29T08:06:40;17.90;85.60
62573;DHT22;48626;51.678;5.806;2022-07-29T08:09:06;18.00;85.90
62573;DHT22;48626;51.678;5.806;2022-07-29T08:11:33;18.00;85.20
62573;DHT22;48626;51.678;5.806;2022-07-29T08:13:59;18.00;84.70
62573;DHT22;48626;51.678;5.806;2022-07-29T08:16:27;18.10;85.30
62573;DHT22;48626;51.678;5.806;2022-07-29T08:18:53;18.10;84.30
62573;DHT22;48626;51.678;5.806;2022-07-29T08:21:22;18.20;84.70
62573;DHT22;48626;51.678;5.806;2022-07-29T08:23:49;18.30;84.50
62573;DHT22;48626;51.678;5.806;2022-07-29T08:26:18;18.30;83.70
62573;DHT22;48626;51.678;5.806;2022-07-29T08:28:44;18.40;82.80
62573;DHT22;48626;51.678;5.806;2022-07-29T08:31:12;18.40;81.50
62573;DHT22;48626;51.678;5.806;2022-07-29T08:33:38;18.40;81.60
62573;DHT22;48626;51.678;5.806;2022-07-29T08:36:05;18.40;81.40
62573;DHT22;48626;51.678;5.806;2022-07-29T08:38:31;18.40;81.20
62573;DHT22;48626;51.678;5.806;2022-07-29T08:40:59;18.60;82.40
62573;DHT22;48626;51.678;5.806;2022-07-29T08:43:29;18.90;82.70
62573;DHT22;48626;51.678;5.806;2022-07-29T08:45:55;19.10;81.80
62573;DHT22;48626;51.678;5.806;2022-07-29T08:48:22;19.30;79.70
62573;DHT22;48626;51.678;5.806;2022-07-29T08:50:56;19.40;79.70
62573;DHT22;48626;51.678;5.806;2022-07-29T08:53:24;19.60;79.00
62573;DHT22;48626;51.678;5.806;2022-07-29T08:55:51;19.80;79.20
62573;DHT22;48626;51.678;5.806;2022-07-29T08:58:18;20.00;77.80
62573;DHT22;48626;51.678;5.806;2022-07-29T09:00:53;20.20;78.20
62573;DHT22;48626;51.678;5.806;2022-07-29T09:03:20;20.50;74.80
62573;DHT22;48626;51.678;5.806;2022-07-29T09:05:48;20.50;75.60
62573;DHT22;48626;51.678;5.806;2022-07-29T09:08:15;20.50;75.50
62573;DHT22;48626;51.678;5.806;2022-07-29T09:10:41;20.60;74.80
62573;DHT22;48626;51.678;5.806;2022-07-29T09:13:07;20.80;74.50
62573;DHT22;48626;51.678;5.806;2022-07-29T09:15:32;20.90;74.40
62573;DHT22;48626;51.678;5.806;2022-07-29T09:17:58;20.90;74.30
62573;DHT22;48626;51.678;5.806;2022-07-29T09:20:25;20.90;70.60
62573;DHT22;48626;51.678;5.806;2022-07-29T09:22:52;20.90;72.20
62573;DHT22;48626;51.678;5.806;2022-07-29T09:25:34;21.20;73.30
62573;DHT22;48626;51.678;5.806;2022-07-29T09:28:14;21.40;72.20
62573;DHT22;48626;51.678;5.806;2022-07-29T09:30:56;21.50;71.90
62573;DHT22;48626;51.678;5.806;2022-07-29T09:33:24;21.60;72.10
62573;DHT22;48626;51.678;5.806;2022-07-29T09:36:07;21.70;72.30
62573;DHT22;48626;51.678;5.806;2022-07-29T09:38:33;22.10;72.80
62573;DHT22;48626;51.678;5.806;2022-07-29T09:41:01;22.20;71.50
62573;DHT22;48626;51.678;5.806;2022-07-29T09:43:27;22.40;70.80
62573;DHT22;48626;51.678;5.806;2022-07-29T09:45:52;22.40;68.80
62573;DHT22;48626;51.678;5.806;2022-07-29T09:48:23;22.50;69.30
62573;DHT22;48626;51.678;5.806;2022-07-29T09:50:49;22.40;67.70
62573;DHT22;48626;51.678;5.806;2022-07-29T09:53:32;22.50;68.90
62573;DHT22;48626;51.678;5.806;2022-07-29T09:55:58;22.70;68.10
62573;DHT22;48626;51.678;5.806;2022-07-29T09:58:24;22.80;69.80
62573;DHT22;48626;51.678;5.806;2022-07-29T10:00:51;22.90;67.80
62573;DHT22;48626;51.678;5.806;2022-07-29T10:03:18;23.00;68.50
62573;DHT22;48626;51.678;5.806;2022-07-29T10:05:44;23.20;68.00
62573;DHT22;48626;51.678;5.806;2022-07-29T10:08:11;23.30;66.70
62573;DHT22;48626;51.678;5.806;2022-07-29T10:10:42;23.50;67.00
62573;DHT22;48626;51.678;5.806;2022-07-29T10:13:12;23.50;64.10
62573;DHT22;48626;51.678;5.806;2022-07-29T10:15:40;23.50;64.30
62573;DHT22;48626;51.678;5.806;2022-07-29T10:18:09;23.50;62.40
62573;DHT22;48626;51.678;5.806;2022-07-29T10:20:36;23.60;61.50
62573;DHT22;48626;51.678;5.806;2022-07-29T10:23:02;23.70;62.60
62573;DHT22;48626;51.678;5.806;2022-07-29T10:25:28;23.90;61.60
62573;DHT22;48626;51.678;5.806;2022-07-29T10:27:54;24.10;64.20
62573;DHT22;48626;51.678;5.806;2022-07-29T10:30:22;24.30;63.20
62573;DHT22;48626;51.678;5.806;2022-07-29T10:42:06;24.60;57.00
62573;DHT22;48626;51.678;5.806;2022-07-29T10:44:33;24.80;60.00
62573;DHT22;48626;51.678;5.806;2022-07-29T10:46:59;25.40;63.00
62573;DHT22;48626;51.678;5.806;2022-07-29T10:49:26;25.80;60.60
62573;DHT22;48626;51.678;5.806;2022-07-29T10:52:06;25.70;57.30
62573;DHT22;48626;51.678;5.806;2022-07-29T10:54:47;26.10;60.20
62573;DHT22;48626;51.678;5.806;2022-07-29T10:57:24;26.30;57.20
62573;DHT22;48626;51.678;5.806;2022-07-29T11:05:01;27.40;54.10
62573;DHT22;48626;51.678;5.806;2022-07-29T11:07:29;27.60;56.40
62573;DHT22;48626;51.678;5.806;2022-07-29T11:15:17;28.20;52.40
62573;DHT22;48626;51.678;5.806;2022-07-29T11:20:48;29.00;48.70
62573;DHT22;48626;51.678;5.806;2022-07-29T11:23:23;29.30;51.50
62573;DHT22;48626;51.678;5.806;2022-07-29T11:29:03;29.80;48.40
62573;DHT22;48626;51.678;5.806;2022-07-29T11:31:34;30.00;48.80
62573;DHT22;48626;51.678;5.806;2022-07-29T11:34:16;30.20;50.10
62573;DHT22;48626;51.678;5.806;2022-07-29T11:39:42;30.50;45.80
62573;DHT22;48626;51.678;5.806;2022-07-29T11:45:12;30.90;47.20
62573;DHT22;48626;51.678;5.806;2022-07-29T11:50:30;31.10;46.60
62573;DHT22;48626;51.678;5.806;2022-07-29T11:52:57;31.60;48.50
62573;DHT22;48626;51.678;5.806;2022-07-29T11:55:24;31.80;45.30
62573;DHT22;48626;51.678;5.806;2022-07-29T11:57:55;31.70;44.00
62573;DHT22;48626;51.678;5.806;2022-07-29T12:02:55;32.30;43.80
62573;DHT22;48626;51.678;5.806;2022-07-29T12:05:21;32.80;46.20
62573;DHT22;48626;51.678;5.806;2022-07-29T12:07:55;32.80;43.40
62573;DHT22;48626;51.678;5.806;2022-07-29T12:10:21;33.00;42.20
62573;DHT22;48626;51.678;5.806;2022-07-29T12:12:51;32.40;39.70
62573;DHT22;48626;51.678;5.806;2022-07-29T12:15:18;32.80;45.20
62573;DHT22;48626;51.678;5.806;2022-07-29T12:17:47;32.70;40.30
62573;DHT22;48626;51.678;5.806;2022-07-29T12:20:12;33.00;44.40
62573;DHT22;48626;51.678;5.806;2022-07-29T12:22:42;33.30;43.00
62573;DHT22;48626;51.678;5.806;2022-07-29T12:25:14;33.40;38.20
62573;DHT22;48626;51.678;5.806;2022-07-29T12:27:42;33.20;40.80
62573;DHT22;48626;51.678;5.806;2022-07-29T12:30:13;33.40;43.80
62573;DHT22;48626;51.678;5.806;2022-07-29T12:35:14;34.10;43.60
62573;DHT22;48626;51.678;5.806;2022-07-29T12:37:42;34.10;40.30
62573;DHT22;48626;51.678;5.806;2022-07-29T12:40:09;34.50;41.80
62573;DHT22;48626;51.678;5.806;2022-07-29T12:42:36;35.00;42.80
62573;DHT22;48626;51.678;5.806;2022-07-29T12:45:03;35.00;38.90
62573;DHT22;48626;51.678;5.806;2022-07-29T12:47:29;35.10;38.40
62573;DHT22;48626;51.678;5.806;2022-07-29T12:50:12;35.50;39.30
62573;DHT22;48626;51.678;5.806;2022-07-29T12:52:40;35.10;31.70
62573;DHT22;48626;51.678;5.806;2022-07-29T12:55:06;34.20;31.10
62573;DHT22;48626;51.678;5.806;2022-07-29T12:57:43;33.30;33.50
62573;DHT22;48626;51.678;5.806;2022-07-29T13:00:11;33.30;38.80
62573;DHT22;48626;51.678;5.806;2022-07-29T13:02:38;33.40;38.90
62573;DHT22;48626;51.678;5.806;2022-07-29T13:05:05;33.70;35.40
62573;DHT22;48626;51.678;5.806;2022-07-29T13:07:32;33.40;32.70
62573;DHT22;48626;51.678;5.806;2022-07-29T13:10:11;33.00;34.40
62573;DHT22;48626;51.678;5.806;2022-07-29T13:12:37;33.50;38.50
62573;DHT22;48626;51.678;5.806;2022-07-29T13:15:14;33.70;32.30
62573;DHT22;48626;51.678;5.806;2022-07-29T13:17:42;34.00;34.00
62573;DHT22;48626;51.678;5.806;2022-07-29T13:20:10;34.30;33.70
62573;DHT22;48626;51.678;5.806;2022-07-29T13:22:40;35.20;36.00
62573;DHT22;48626;51.678;5.806;2022-07-29T13:25:08;35.90;36.70
62573;DHT22;48626;51.678;5.806;2022-07-29T13:27:35;36.80;38.20
62573;DHT22;48626;51.678;5.806;2022-07-29T13:30:04;37.10;35.90
62573;DHT22;48626;51.678;5.806;2022-07-29T13:32:31;37.20;30.70
62573;DHT22;48626;51.678;5.806;2022-07-29T13:35:00;37.10;32.70
62573;DHT22;48626;51.678;5.806;2022-07-29T13:37:27;37.10;31.10
62573;DHT22;48626;51.678;5.806;2022-07-29T13:39:55;37.50;33.80
62573;DHT22;48626;51.678;5.806;2022-07-29T13:42:22;37.80;30.00
62573;DHT22;48626;51.678;5.806;2022-07-29T13:44:48;37.80;30.00
62573;DHT22;48626;51.678;5.806;2022-07-29T13:47:18;38.30;33.50
62573;DHT22;48626;51.678;5.806;2022-07-29T13:49:43;38.20;28.10
62573;DHT22;48626;51.678;5.806;2022-07-29T13:52:09;38.20;33.00
62573;DHT22;48626;51.678;5.806;2022-07-29T13:54:35;38.00;29.80
62573;DHT22;48626;51.678;5.806;2022-07-29T13:57:03;38.10;30.60
62573;DHT22;48626;51.678;5.806;2022-07-29T13:59:29;37.90;29.10
62573;DHT22;48626;51.678;5.806;2022-07-29T14:01:55;38.00;29.00
62573;DHT22;48626;51.678;5.806;2022-07-29T14:04:20;38.20;30.30
62573;DHT22;48626;51.678;5.806;2022-07-29T14:06:51;37.70;27.20
62573;DHT22;48626;51.678;5.806;2022-07-29T14:09:17;37.30;26.60
62573;DHT22;48626;51.678;5.806;2022-07-29T14:11:42;37.10;28.10
62573;DHT22;48626;51.678;5.806;2022-07-29T14:14:08;37.50;30.60
62573;DHT22;48626;51.678;5.806;2022-07-29T14:16:35;37.90;29.30
62573;DHT22;48626;51.678;5.806;2022-07-29T14:19:01;38.00;28.00
62573;DHT22;48626;51.678;5.806;2022-07-29T14:21:27;38.40;31.80
62573;DHT22;48626;51.678;5.806;2022-07-29T14:23:53;38.60;29.10
62573;DHT22;48626;51.678;5.806;2022-07-29T14:26:20;38.60;30.00
62573;DHT22;48626;51.678;5.806;2022-07-29T14:28:47;38.70;28.50
62573;DHT22;48626;51.678;5.806;2022-07-29T14:31:12;38.90;29.70
62573;DHT22;48626;51.678;5.806;2022-07-29T14:33:38;38.80;25.50
62573;DHT22;48626;51.678;5.806;2022-07-29T14:36:04;38.60;29.00
62573;DHT22;48626;51.678;5.806;2022-07-29T14:38:29;38.60;27.70
62573;DHT22;48626;51.678;5.806;2022-07-29T14:40:55;38.10;26.10
62573;DHT22;48626;51.678;5.806;2022-07-29T14:43:20;38.00;27.00
62573;DHT22;48626;51.678;5.806;2022-07-29T14:45:46;38.00;30.80
62573;DHT22;48626;51.678;5.806;2022-07-29T14:48:12;38.80;31.30
62573;DHT22;48626;51.678;5.806;2022-07-29T14:50:38;39.20;31.00
62573;DHT22;48626;51.678;5.806;2022-07-29T14:53:03;39.60;30.00
62573;DHT22;48626;51.678;5.806;2022-07-29T14:55:29;39.50;24.50
62573;DHT22;48626;51.678;5.806;2022-07-29T14:57:55;39.40;25.30
62573;DHT22;48626;51.678;5.806;2022-07-29T15:00:21;38.90;24.10
62573;DHT22;48626;51.678;5.806;2022-07-29T15:02:47;39.00;27.30
62573;DHT22;48626;51.678;5.806;2022-07-29T15:05:13;39.30;27.60
62573;DHT22;48626;51.678;5.806;2022-07-29T15:07:39;38.90;25.20
62573;DHT22;48626;51.678;5.806;2022-07-29T15:10:05;37.30;24.50
62573;DHT22;48626;51.678;5.806;2022-07-29T15:12:31;36.40;27.70
62573;DHT22;48626;51.678;5.806;2022-07-29T15:14:57;35.70;27.50
62573;DHT22;48626;51.678;5.806;2022-07-29T15:17:27;34.90;27.90
62573;DHT22;48626;51.678;5.806;2022-07-29T15:19:52;34.30;28.20
62573;DHT22;48626;51.678;5.806;2022-07-29T15:22:18;33.70;28.50
62573;DHT22;48626;51.678;5.806;2022-07-29T15:24:44;33.30;27.90
62573;DHT22;48626;51.678;5.806;2022-07-29T15:27:10;32.90;29.40
62573;DHT22;48626;51.678;5.806;2022-07-29T15:29:43;32.80;29.90
62573;DHT22;48626;51.678;5.806;2022-07-29T15:32:10;32.80;30.00
62573;DHT22;48626;51.678;5.806;2022-07-29T15:34:37;32.60;30.90
62573;DHT22;48626;51.678;5.806;2022-07-29T15:37:04;32.50;30.70
62573;DHT22;48626;51.678;5.806;2022-07-29T15:39:30;32.70;33.50
62573;DHT22;48626;51.678;5.806;2022-07-29T15:41:59;33.00;32.70
62573;DHT22;48626;51.678;5.806;2022-07-29T15:44:26;32.60;32.10
62573;DHT22;48626;51.678;5.806;2022-07-29T15:46:51;32.00;33.00
62573;DHT22;48626;51.678;5.806;2022-07-29T15:49:36;32.00;32.10
62573;DHT22;48626;51.678;5.806;2022-07-29T15:52:05;32.30;31.20
62573;DHT22;48626;51.678;5.806;2022-07-29T15:54:35;32.60;30.20
62573;DHT22;48626;51.678;5.806;2022-07-29T15:57:02;32.20;31.80
62573;DHT22;48626;51.678;5.806;2022-07-29T15:59:28;31.70;31.00
62573;DHT22;48626;51.678;5.806;2022-07-29T16:01:54;31.50;31.80
62573;DHT22;48626;51.678;5.806;2022-07-29T16:04:20;31.30;33.50
62573;DHT22;48626;51.678;5.806;2022-07-29T16:06:47;30.80;33.20
62573;DHT22;48626;51.678;5.806;2022-07-29T16:09:14;30.40;32.60
62573;DHT22;48626;51.678;5.806;2022-07-29T16:11:40;30.00;34.60
62573;DHT22;48626;51.678;5.806;2022-07-29T16:14:07;29.80;38.00
62573;DHT22;48626;51.678;5.806;2022-07-29T16:16:33;29.70;39.80
62573;DHT22;48626;51.678;5.806;2022-07-29T16:18:59;29.50;38.20
62573;DHT22;48626;51.678;5.806;2022-07-29T16:21:25;29.50;39.50
62573;DHT22;48626;51.678;5.806;2022-07-29T16:23:50;30.20;39.90
62573;DHT22;48626;51.678;5.806;2022-07-29T16:26:17;30.40;38.50
62573;DHT22;48626;51.678;5.806;2022-07-29T16:28:43;30.10;35.50